Neilburg, Canada
Current Conditions -  °F | °C
As of 3:00 PM on Friday 31 Oct 2014 (Local Time) from CYLL Reporting Station
Broken Clouds Broken Clouds  
Wind Chill: 40°   Ceiling: 25000
Heat Index: 46°   Visibility: 15mi
Dew Point: 34°   Wind: 14mph
Humidity: 62%   Direction: 150°SSE
Pressure: 29.63"   Gusts: 22mph
Location:  52.83°N, 109.63°W
Report Text: CYLL 312000Z 15012G19KT 15SM SCT160 BKN250 08/01 A2963 RMK AC4CI3 SLP059
Loading
Personal Weather Stations






























Interactive Weather Map
Tropical Storm Tracking
New forecast layout! Learn more

10-Day Weather Forecast

Advertisements
Track Severe Weather on mobile